Time;durP1;ratioP1;P1;durP2;ratioP2;P2;SDS_P1;SDS_P2;PMS_P1;PMS_P2;Temp;Humidity;BMP_temperature;BMP_pressure;BME280_temperature;BME280_humidity;BME280_pressure;Samples;Min_cycle;Max_cycle;Signal;HPM_P1;HPM_P2
2023/11/04 00:01:21;;;;;;;21.60;11.32;;;;;;;;;;5135892;27;20058;-73
2023/11/04 00:04:06;;;;;;;16.90;10.43;;;;;;;;;;5136161;27;20015;-72
2023/11/04 00:06:52;;;;;;;15.82;9.80;;;;;;;;;;5135566;27;20019;-71
2023/11/04 00:09:38;;;;;;;14.85;10.32;;;;;;;;;;5135989;27;20447;-73
2023/11/04 00:12:23;;;;;;;15.90;10.45;;;;;;;;;;5135561;27;20119;-72
2023/11/04 00:15:09;;;;;;;16.10;10.43;;;;;;;;;;5136214;27;20071;-72
2023/11/04 00:17:55;;;;;;;15.63;10.13;;;;;;;;;;5135077;27;20026;-72
2023/11/04 00:20:40;;;;;;;16.35;9.48;;;;;;;;;;5136627;27;20080;-73
2023/11/04 00:23:26;;;;;;;13.93;9.55;;;;;;;;;;5136600;27;20450;-72
2023/11/04 00:26:11;;;;;;;15.00;8.63;;;;;;;;;;5120395;27;20062;-72
2023/11/04 00:28:58;;;;;;;11.95;8.85;;;;;;;;;;5136527;27;20033;-72
2023/11/04 00:31:43;;;;;;;14.98;7.78;;;;;;;;;;5135668;27;20027;-73
2023/11/04 00:34:29;;;;;;;10.40;7.88;;;;;;;;;;5135880;27;20095;-72
2023/11/04 00:37:15;;;;;;;11.50;8.10;;;;;;;;;;5136116;27;20099;-71
2023/11/04 00:40:06;;;;;;;11.18;7.45;;;;;;;;;;5135252;27;20038;-72
2023/11/04 00:42:53;;;;;;;13.27;8.10;;;;;;;;;;5119725;27;20075;-72
2023/11/04 00:45:38;;;;;;;13.23;7.78;;;;;;;;;;5136484;27;20308;-71
2023/11/04 00:48:24;;;;;;;11.73;7.78;;;;;;;;;;5134613;27;20344;-71
2023/11/04 00:51:09;;;;;;;11.10;8.00;;;;;;;;;;5134980;27;20068;-72
2023/11/04 00:53:55;;;;;;;12.25;7.72;;;;;;;;;;5135356;27;20352;-71
2023/11/04 00:56:41;;;;;;;10.60;7.18;;;;;;;;;;5135071;27;20033;-70
2023/11/04 00:59:26;;;;;;;13.07;7.63;;;;;;;;;;5134972;27;20015;-72
2023/11/04 01:02:12;;;;;;;10.20;7.22;;;;;;;;;;5134913;27;20019;-71
2023/11/04 01:04:58;;;;;;;10.02;6.78;;;;;;;;;;5135209;28;20033;-71
2023/11/04 01:07:43;;;;;;;9.80;7.05;;;;;;;;;;5134474;28;20435;-71
2023/11/04 01:10:29;;;;;;;11.27;7.28;;;;;;;;;;5135861;28;20409;-72
2023/11/04 01:13:15;;;;;;;11.82;7.38;;;;;;;;;;5135699;28;20019;-72
2023/11/04 01:16:00;;;;;;;11.25;7.68;;;;;;;;;;5134293;28;20019;-73
2023/11/04 01:18:46;;;;;;;13.27;7.80;;;;;;;;;;5134708;28;20057;-71
2023/11/04 01:21:32;;;;;;;11.35;7.38;;;;;;;;;;5134877;28;20034;-71
2023/11/04 01:24:18;;;;;;;12.40;8.25;;;;;;;;;;5135521;28;20058;-71
2023/11/04 01:27:07;;;;;;;14.40;8.02;;;;;;;;;;5129114;28;20033;-71
2023/11/04 01:29:53;;;;;;;14.88;7.85;;;;;;;;;;5134222;28;20061;-72
2023/11/04 01:32:39;;;;;;;12.10;7.38;;;;;;;;;;5134272;28;20385;-71
2023/11/04 01:35:25;;;;;;;10.20;6.68;;;;;;;;;;5133999;28;20156;-71
2023/11/04 01:38:10;;;;;;;8.18;6.38;;;;;;;;;;5118754;28;20015;-71
2023/11/04 01:40:56;;;;;;;12.45;5.85;;;;;;;;;;5118595;28;20053;-71
2023/11/04 01:43:42;;;;;;;9.20;6.57;;;;;;;;;;5134636;28;20107;-71
2023/11/04 01:46:27;;;;;;;11.52;6.70;;;;;;;;;;5134432;28;20029;-72
2023/11/04 01:49:13;;;;;;;11.13;7.00;;;;;;;;;;5134392;28;20038;-71
2023/11/04 01:51:59;;;;;;;9.68;6.85;;;;;;;;;;5134979;28;20072;-72
2023/11/04 01:54:45;;;;;;;8.98;6.53;;;;;;;;;;5134317;28;20039;-72
2023/11/04 01:57:30;;;;;;;10.52;7.10;;;;;;;;;;5134496;28;20098;-72
2023/11/04 02:00:17;;;;;;;12.25;7.18;;;;;;;;;;5133941;28;20110;-71
2023/11/04 02:03:04;;;;;;;10.43;6.70;;;;;;;;;;5118786;28;20034;-71
2023/11/04 02:05:50;;;;;;;8.65;6.35;;;;;;;;;;5134022;28;20345;-72
2023/11/04 02:08:36;;;;;;;9.15;6.20;;;;;;;;;;5134637;27;20023;-71
2023/11/04 02:11:22;;;;;;;7.65;6.20;;;;;;;;;;5138036;27;20104;-71
2023/11/04 02:14:09;;;;;;;7.63;6.07;;;;;;;;;;5138127;27;20336;-71
2023/11/04 02:16:55;;;;;;;12.20;6.35;;;;;;;;;;5138492;27;20037;-71
2023/11/04 02:19:40;;;;;;;10.25;6.55;;;;;;;;;;5137446;27;20085;-71
2023/11/04 02:22:26;;;;;;;10.38;6.22;;;;;;;;;;5123625;27;20451;-72
2023/11/04 02:25:12;;;;;;;10.93;6.40;;;;;;;;;;5138973;27;20031;-71
2023/11/04 02:27:58;;;;;;;11.02;5.97;;;;;;;;;;5137718;27;20023;-72
2023/11/04 02:30:43;;;;;;;8.23;5.82;;;;;;;;;;5136878;27;20023;-71
2023/11/04 02:33:29;;;;;;;11.95;6.25;;;;;;;;;;5137435;27;20400;-71
2023/11/04 02:36:14;;;;;;;8.73;6.18;;;;;;;;;;5138452;27;20098;-72
2023/11/04 02:39:00;;;;;;;9.45;6.55;;;;;;;;;;5137205;27;20351;-72
2023/11/04 02:41:46;;;;;;;8.43;6.15;;;;;;;;;;5123644;27;20358;-72
2023/11/04 02:44:31;;;;;;;8.82;6.18;;;;;;;;;;5138246;27;20027;-72
2023/11/04 02:47:17;;;;;;;9.55;5.93;;;;;;;;;;5137673;27;20023;-71
2023/11/04 02:50:03;;;;;;;9.18;5.97;;;;;;;;;;5137964;27;20031;-72
2023/11/04 02:52:48;;;;;;;11.35;6.38;;;;;;;;;;5137579;27;20015;-71
2023/11/04 02:55:34;;;;;;;11.15;6.05;;;;;;;;;;5137137;27;20043;-71
2023/11/04 02:58:19;;;;;;;8.25;5.68;;;;;;;;;;5137917;27;20027;-72
2023/11/04 03:01:05;;;;;;;7.97;5.82;;;;;;;;;;5137407;27;20073;-72
2023/11/04 03:03:51;;;;;;;8.95;6.47;;;;;;;;;;5136743;27;20031;-71
2023/11/04 03:06:36;;;;;;;11.40;7.80;;;;;;;;;;5137416;27;20512;-72
2023/11/04 03:09:22;;;;;;;10.95;7.70;;;;;;;;;;5137124;27;20023;-71
2023/11/04 03:12:08;;;;;;;11.43;8.13;;;;;;;;;;5137451;27;20456;-72
2023/11/04 03:14:53;;;;;;;11.77;7.68;;;;;;;;;;5122791;27;20030;-72
2023/11/04 03:17:39;;;;;;;13.60;8.55;;;;;;;;;;5137080;27;20414;-72
2023/11/04 03:20:24;;;;;;;12.65;7.85;;;;;;;;;;5137545;27;20447;-71
2023/11/04 03:23:10;;;;;;;13.07;8.77;;;;;;;;;;5121557;27;20023;-71
2023/11/04 03:25:56;;;;;;;12.65;8.45;;;;;;;;;;5122271;27;20075;-72
2023/11/04 03:28:41;;;;;;;11.18;8.52;;;;;;;;;;5137321;27;20019;-71
2023/11/04 03:31:27;;;;;;;13.90;8.80;;;;;;;;;;5137157;27;20106;-72
2023/11/04 03:34:13;;;;;;;16.27;9.02;;;;;;;;;;5122329;27;20370;-72
2023/11/04 03:37:02;;;;;;;14.50;8.75;;;;;;;;;;5121619;27;20046;-72
2023/11/04 03:39:47;;;;;;;14.38;9.00;;;;;;;;;;5127005;27;20344;-73
2023/11/04 03:42:36;;;;;;;11.75;8.10;;;;;;;;;;5148823;27;20023;-72
2023/11/04 03:45:22;;;;;;;15.30;8.60;;;;;;;;;;5148228;27;20339;-71
2023/11/04 03:48:08;;;;;;;13.27;8.18;;;;;;;;;;5147074;27;20034;-71
2023/11/04 03:50:54;;;;;;;12.48;7.95;;;;;;;;;;5130990;27;20038;-71
2023/11/04 03:53:39;;;;;;;11.95;7.68;;;;;;;;;;5140736;27;20487;-72
2023/11/04 03:56:25;;;;;;;11.45;7.50;;;;;;;;;;5116241;28;20030;-71
2023/11/04 03:59:10;;;;;;;11.82;7.18;;;;;;;;;;5115710;28;20027;-72
2023/11/04 04:01:56;;;;;;;12.15;7.63;;;;;;;;;;5101558;28;20016;-71
2023/11/04 04:04:42;;;;;;;13.38;8.68;;;;;;;;;;5115662;28;20020;-71
2023/11/04 04:07:27;;;;;;;13.20;8.63;;;;;;;;;;5115668;28;20557;-72
2023/11/04 04:10:13;;;;;;;18.02;9.75;;;;;;;;;;5114762;28;20023;-71
2023/11/04 04:12:59;;;;;;;11.80;8.65;;;;;;;;;;5115518;28;20099;-72
2023/11/04 04:15:45;;;;;;;16.20;9.30;;;;;;;;;;5100304;28;20015;-72
2023/11/04 04:18:30;;;;;;;14.45;9.85;;;;;;;;;;5115551;28;20106;-71
2023/11/04 04:21:16;;;;;;;13.13;9.02;;;;;;;;;;5099443;28;20016;-71
2023/11/04 04:24:02;;;;;;;16.80;9.45;;;;;;;;;;5114855;28;20103;-72
2023/11/04 04:26:47;;;;;;;13.82;8.90;;;;;;;;;;5114547;28;20367;-72
2023/11/04 04:29:33;;;;;;;15.63;9.02;;;;;;;;;;5101032;28;20020;-72
2023/11/04 04:32:19;;;;;;;15.23;9.73;;;;;;;;;;5113720;28;20015;-72
2023/11/04 04:35:04;;;;;;;14.45;9.30;;;;;;;;;;5101073;28;20020;-72
2023/11/04 04:37:50;;;;;;;16.67;9.20;;;;;;;;;;5114390;28;20028;-72
2023/11/04 04:40:36;;;;;;;15.50;9.20;;;;;;;;;;5114011;28;20016;-72
2023/11/04 04:43:21;;;;;;;18.20;9.80;;;;;;;;;;5114725;28;20023;-72
2023/11/04 04:46:07;;;;;;;13.02;8.95;;;;;;;;;;5114542;28;20016;-71
2023/11/04 04:48:52;;;;;;;13.40;9.00;;;;;;;;;;5099395;28;20100;-71
2023/11/04 04:51:38;;;;;;;15.13;10.48;;;;;;;;;;5114345;28;20012;-72
2023/11/04 04:54:24;;;;;;;16.85;10.40;;;;;;;;;;5124289;27;20075;-72
2023/11/04 04:57:09;;;;;;;17.77;11.18;;;;;;;;;;5134774;27;20019;-73
2023/11/04 04:59:55;;;;;;;19.45;11.23;;;;;;;;;;5120254;27;20012;-72
2023/11/04 05:02:42;;;;;;;19.25;11.38;;;;;;;;;;5134512;27;20091;-72
2023/11/04 05:05:27;;;;;;;22.25;11.88;;;;;;;;;;5135850;28;20019;-71
2023/11/04 05:08:13;;;;;;;18.55;10.93;;;;;;;;;;5135470;28;20030;-71
2023/11/04 05:10:58;;;;;;;18.23;11.65;;;;;;;;;;5134604;28;20027;-72
2023/11/04 05:13:44;;;;;;;22.52;12.07;;;;;;;;;;5134760;28;20020;-71
2023/11/04 05:16:30;;;;;;;22.35;12.95;;;;;;;;;;5135413;28;20068;-74
2023/11/04 05:19:16;;;;;;;22.65;12.88;;;;;;;;;;5119856;28;20070;-71
2023/11/04 05:22:02;;;;;;;21.83;14.10;;;;;;;;;;5135928;28;20038;-71
2023/11/04 05:24:49;;;;;;;21.73;14.15;;;;;;;;;;5111216;28;20153;-72
2023/11/04 05:27:34;;;;;;;21.63;14.50;;;;;;;;;;5120794;28;20118;-71
2023/11/04 05:30:21;;;;;;;21.67;12.68;;;;;;;;;;5134471;28;20012;-71
2023/11/04 05:33:06;;;;;;;18.70;11.90;;;;;;;;;;5134832;28;20023;-71
2023/11/04 05:35:52;;;;;;;19.80;11.50;;;;;;;;;;5134853;28;20015;-72
2023/11/04 05:38:38;;;;;;;20.23;12.60;;;;;;;;;;5134727;28;20023;-72
2023/11/04 05:41:23;;;;;;;24.40;13.02;;;;;;;;;;5135121;28;20023;-72
2023/11/04 05:44:09;;;;;;;20.70;12.50;;;;;;;;;;5137958;27;20431;-72
2023/11/04 05:46:55;;;;;;;19.08;12.35;;;;;;;;;;5138892;27;20114;-72
2023/11/04 05:49:41;;;;;;;23.95;13.82;;;;;;;;;;5139029;27;20034;-72
2023/11/04 05:52:26;;;;;;;21.90;12.85;;;;;;;;;;5138777;27;20415;-72
2023/11/04 05:55:12;;;;;;;22.73;13.27;;;;;;;;;;5137844;27;20085;-71
2023/11/04 05:57:58;;;;;;;23.55;13.65;;;;;;;;;;5138109;27;20026;-72
2023/11/04 06:00:44;;;;;;;22.10;13.20;;;;;;;;;;5123922;27;20118;-72
2023/11/04 06:03:29;;;;;;;24.42;13.55;;;;;;;;;;5138372;27;20462;-74
2023/11/04 06:06:21;;;;;;;24.02;13.75;;;;;;;;;;5138637;27;20033;-73
2023/11/04 06:09:07;;;;;;;24.83;12.98;;;;;;;;;;5138856;27;20034;-72
2023/11/04 06:11:53;;;;;;;19.65;11.77;;;;;;;;;;5138914;27;20026;-71
2023/11/04 06:14:39;;;;;;;21.67;12.75;;;;;;;;;;5138909;27;20057;-71
2023/11/04 06:17:25;;;;;;;20.55;12.32;;;;;;;;;;5138489;27;20016;-71
2023/11/04 06:20:10;;;;;;;21.85;12.65;;;;;;;;;;5138303;27;20031;-73
2023/11/04 06:22:56;;;;;;;20.05;12.10;;;;;;;;;;5138339;27;20180;-71
2023/11/04 06:25:42;;;;;;;21.10;12.27;;;;;;;;;;5138336;27;20027;-72
2023/11/04 06:28:28;;;;;;;21.42;13.35;;;;;;;;;;5122598;27;20051;-71
2023/11/04 06:31:14;;;;;;;28.05;14.70;;;;;;;;;;5137876;27;20019;-71
2023/11/04 06:34:00;;;;;;;25.23;14.32;;;;;;;;;;5138119;27;20015;-71
2023/11/04 06:36:46;;;;;;;24.65;13.75;;;;;;;;;;5137824;27;20392;-71
2023/11/04 06:39:31;;;;;;;21.90;12.13;;;;;;;;;;5137641;27;20370;-71
2023/11/04 06:42:20;;;;;;;21.67;12.60;;;;;;;;;;5137362;27;20102;-72
2023/11/04 06:45:06;;;;;;;22.10;13.20;;;;;;;;;;5138658;27;20037;-70
2023/11/04 06:47:52;;;;;;;23.17;13.32;;;;;;;;;;5121951;27;20095;-72
2023/11/04 06:50:37;;;;;;;24.10;13.52;;;;;;;;;;5136831;27;20023;-72
2023/11/04 06:53:23;;;;;;;20.25;11.43;;;;;;;;;;5137174;27;20397;-72
2023/11/04 06:56:09;;;;;;;22.05;12.00;;;;;;;;;;5121904;27;20027;-73
2023/11/04 06:58:55;;;;;;;20.13;12.30;;;;;;;;;;5123097;27;20106;-71
2023/11/04 07:01:40;;;;;;;19.40;11.40;;;;;;;;;;5122576;27;20042;-71
2023/11/04 07:04:26;;;;;;;19.48;11.35;;;;;;;;;;5137327;27;20042;-71
2023/11/04 07:07:12;;;;;;;21.73;12.63;;;;;;;;;;5137419;27;20030;-71
2023/11/04 07:09:57;;;;;;;19.35;12.02;;;;;;;;;;5122314;27;20023;-71
2023/11/04 07:12:43;;;;;;;21.35;13.30;;;;;;;;;;5122389;27;20023;-72
2023/11/04 07:15:29;;;;;;;22.35;12.30;;;;;;;;;;5122001;27;20072;-71
2023/11/04 07:18:15;;;;;;;21.75;12.82;;;;;;;;;;5122668;27;20023;-71
2023/11/04 07:21:01;;;;;;;21.65;13.55;;;;;;;;;;5136670;27;20054;-73
2023/11/04 07:23:47;;;;;;;26.52;13.38;;;;;;;;;;5137241;27;20451;-72
2023/11/04 07:26:32;;;;;;;21.58;12.95;;;;;;;;;;5136952;27;20373;-71
2023/11/04 07:29:18;;;;;;;21.50;11.95;;;;;;;;;;5136639;27;20443;-71
2023/11/04 07:32:04;;;;;;;21.05;12.02;;;;;;;;;;5115753;27;20118;-71
2023/11/04 07:34:50;;;;;;;22.30;13.30;;;;;;;;;;5135610;27;20033;-72
2023/11/04 07:37:36;;;;;;;27.05;16.50;;;;;;;;;;5121678;27;20027;-71
2023/11/04 07:40:23;;;;;;;31.40;18.58;;;;;;;;;;5135956;27;20031;-71
2023/11/04 07:43:10;;;;;;;25.02;13.43;;;;;;;;;;5121534;27;20023;-72
2023/11/04 07:45:55;;;;;;;29.33;14.48;;;;;;;;;;5123355;27;20023;-72
2023/11/04 07:48:41;;;;;;;25.38;12.93;;;;;;;;;;5122254;27;20019;-71
2023/11/04 07:51:26;;;;;;;19.00;9.85;;;;;;;;;;5136741;27;20427;-70
2023/11/04 07:54:12;;;;;;;16.52;7.68;;;;;;;;;;5136083;27;20066;-72
2023/11/04 07:56:58;;;;;;;11.27;6.15;;;;;;;;;;5136203;27;20015;-71
2023/11/04 07:59:43;;;;;;;11.60;5.50;;;;;;;;;;5136740;27;20105;-71
2023/11/04 08:02:29;;;;;;;11.05;4.80;;;;;;;;;;5136384;27;20019;-71
2023/11/04 08:05:14;;;;;;;13.35;5.80;;;;;;;;;;5137214;27;20031;-72
2023/11/04 08:08:00;;;;;;;16.45;7.05;;;;;;;;;;5112776;27;20033;-73
2023/11/04 08:10:46;;;;;;;12.52;6.80;;;;;;;;;;5136120;27;20143;-72
2023/11/04 08:13:31;;;;;;;10.80;6.80;;;;;;;;;;5135847;27;20019;-72
2023/11/04 08:16:17;;;;;;;13.70;6.30;;;;;;;;;;5137243;27;20355;-73
2023/11/04 08:19:02;;;;;;;14.43;6.05;;;;;;;;;;5135422;27;20038;-72
2023/11/04 08:21:51;;;;;;;14.25;5.53;;;;;;;;;;5136065;27;20034;-73
2023/11/04 08:24:37;;;;;;;12.68;6.38;;;;;;;;;;5135343;27;20031;-72
2023/11/04 08:27:22;;;;;;;16.05;8.35;;;;;;;;;;5136699;27;20015;-71
2023/11/04 08:30:08;;;;;;;15.23;7.55;;;;;;;;;;5135988;27;20458;-72
2023/11/04 08:32:55;;;;;;;15.00;9.30;;;;;;;;;;5135904;27;20019;-73
2023/11/04 08:35:41;;;;;;;19.70;9.32;;;;;;;;;;5135726;27;20355;-72
2023/11/04 08:38:27;;;;;;;22.35;10.10;;;;;;;;;;5135344;27;20019;-73
2023/11/04 08:41:13;;;;;;;21.80;11.23;;;;;;;;;;5120408;27;20023;-72
2023/11/04 08:43:58;;;;;;;21.65;11.32;;;;;;;;;;5135993;27;20026;-71
2023/11/04 08:46:44;;;;;;;21.88;11.90;;;;;;;;;;5134736;27;20011;-72
2023/11/04 08:49:30;;;;;;;24.77;12.25;;;;;;;;;;5135219;27;20551;-70
2023/11/04 08:52:15;;;;;;;19.85;12.65;;;;;;;;;;5135606;27;20508;-71
2023/11/04 08:55:04;;;;;;;29.60;13.38;;;;;;;;;;5135108;27;20528;-72
2023/11/04 08:57:49;;;;;;;25.13;12.50;;;;;;;;;;5136286;27;20031;-70
2023/11/04 09:00:35;;;;;;;21.25;12.10;;;;;;;;;;5120291;27;20178;-71
2023/11/04 09:03:22;;;;;;;24.48;13.35;;;;;;;;;;5135347;27;20023;-70
2023/11/04 09:06:08;;;;;;;21.58;12.45;;;;;;;;;;5134740;28;20035;-71
2023/11/04 09:08:54;;;;;;;27.98;14.27;;;;;;;;;;5134862;28;20037;-71
2023/11/04 09:11:40;;;;;;;24.58;12.88;;;;;;;;;;5134481;28;20033;-71
2023/11/04 09:14:25;;;;;;;24.27;13.93;;;;;;;;;;5134942;28;20023;-72
2023/11/04 09:17:11;;;;;;;21.45;12.85;;;;;;;;;;5135224;27;20025;-71
2023/11/04 09:19:57;;;;;;;22.27;12.45;;;;;;;;;;5139594;27;20027;-72
2023/11/04 09:22:43;;;;;;;22.77;13.23;;;;;;;;;;5138511;27;20023;-72
2023/11/04 09:25:28;;;;;;;19.73;12.30;;;;;;;;;;5138159;27;20023;-72
2023/11/04 09:28:14;;;;;;;20.65;12.60;;;;;;;;;;5138753;27;20027;-72
2023/11/04 09:31:00;;;;;;;22.05;14.60;;;;;;;;;;5139141;27;20128;-72
2023/11/04 09:33:46;;;;;;;27.52;13.75;;;;;;;;;;5125125;27;20019;-71
2023/11/04 09:36:31;;;;;;;23.67;13.55;;;;;;;;;;5138459;27;20490;-71
2023/11/04 09:39:18;;;;;;;20.45;13.02;;;;;;;;;;5138988;27;20027;-72
2023/11/04 09:42:06;;;;;;;27.15;13.40;;;;;;;;;;5139160;27;20026;-71
2023/11/04 09:44:52;;;;;;;23.20;13.18;;;;;;;;;;5138555;27;20110;-72
2023/11/04 09:47:38;;;;;;;20.88;12.90;;;;;;;;;;5139521;27;20027;-72
2023/11/04 09:50:25;;;;;;;21.48;13.32;;;;;;;;;;5138713;27;20056;-72
2023/11/04 09:53:15;;;;;;;20.92;12.15;;;;;;;;;;5141546;27;20049;-72
2023/11/04 09:56:01;;;;;;;20.90;12.88;;;;;;;;;;5138695;27;20122;-72
2023/11/04 09:58:47;;;;;;;25.77;13.55;;;;;;;;;;5124942;27;20108;-72
2023/11/04 10:01:33;;;;;;;19.70;12.88;;;;;;;;;;5139312;27;20076;-71
2023/11/04 10:04:19;;;;;;;20.80;13.10;;;;;;;;;;5125563;27;20039;-72
2023/11/04 10:07:07;;;;;;;20.58;13.30;;;;;;;;;;5139592;27;20023;-71
2023/11/04 10:09:53;;;;;;;23.50;13.40;;;;;;;;;;5138344;27;20015;-71
2023/11/04 10:12:39;;;;;;;22.85;13.18;;;;;;;;;;5138028;27;20023;-71
2023/11/04 10:15:25;;;;;;;20.90;13.02;;;;;;;;;;5138775;27;20400;-72
2023/11/04 10:18:11;;;;;;;23.15;13.23;;;;;;;;;;5138372;27;20081;-72
2023/11/04 10:20:57;;;;;;;22.08;13.30;;;;;;;;;;5138332;27;20431;-72
2023/11/04 10:23:43;;;;;;;24.13;13.70;;;;;;;;;;5137732;27;20305;-71
2023/11/04 10:26:28;;;;;;;21.38;12.55;;;;;;;;;;5138235;27;20452;-71
2023/11/04 10:29:14;;;;;;;23.83;13.05;;;;;;;;;;5136392;27;20037;-72
2023/11/04 10:32:03;;;;;;;22.95;12.40;;;;;;;;;;5137870;27;20026;-72
2023/11/04 10:34:50;;;;;;;21.52;12.32;;;;;;;;;;5123418;27;20056;-71
2023/11/04 10:37:36;;;;;;;20.77;13.75;;;;;;;;;;5137552;27;20445;-71
2023/11/04 10:40:22;;;;;;;21.52;12.52;;;;;;;;;;5138155;27;20019;-72
2023/11/04 10:43:10;;;;;;;24.42;14.07;;;;;;;;;;5137812;27;20011;-72
2023/11/04 10:46:02;;;;;;;24.67;14.63;;;;;;;;;;5137473;27;20016;-70
2023/11/04 10:48:48;;;;;;;27.88;14.60;;;;;;;;;;5122770;27;20023;-70
2023/11/04 10:51:37;;;;;;;24.60;14.52;;;;;;;;;;5137906;27;20164;-71
2023/11/04 10:54:29;;;;;;;26.30;14.27;;;;;;;;;;5137004;27;20494;-72
2023/11/04 10:57:20;;;;;;;29.13;14.70;;;;;;;;;;5122782;27;20023;-72
2023/11/04 11:00:13;;;;;;;24.00;14.95;;;;;;;;;;5137283;27;20023;-70
2023/11/04 11:02:58;;;;;;;27.80;15.82;;;;;;;;;;5137247;27;20447;-71
2023/11/04 11:05:44;;;;;;;29.15;16.00;;;;;;;;;;5136645;27;20031;-71
2023/11/04 11:08:30;;;;;;;24.98;14.57;;;;;;;;;;5137649;27;20032;-71
2023/11/04 11:11:21;;;;;;;22.33;12.68;;;;;;;;;;5121240;27;20030;-71
2023/11/04 11:14:07;;;;;;;18.80;12.27;;;;;;;;;;5136584;27;20031;-72
2023/11/04 11:17:01;;;;;;;19.83;11.73;;;;;;;;;;5137136;27;20034;-71
2023/11/04 11:19:51;;;;;;;16.70;11.20;;;;;;;;;;5136640;27;20023;-71
2023/11/04 11:22:37;;;;;;;14.63;9.98;;;;;;;;;;5137231;27;20126;-70
2023/11/04 11:25:32;;;;;;;16.50;10.35;;;;;;;;;;5136503;27;20102;-72
2023/11/04 11:28:19;;;;;;;15.48;9.95;;;;;;;;;;5137186;27;20034;-72
2023/11/04 11:31:05;;;;;;;17.38;10.80;;;;;;;;;;5116378;27;20052;-71
2023/11/04 11:33:50;;;;;;;18.85;10.73;;;;;;;;;;5136881;27;20504;-71
2023/11/04 11:36:36;;;;;;;17.65;11.45;;;;;;;;;;5136300;27;20023;-72
2023/11/04 11:39:22;;;;;;;17.52;11.35;;;;;;;;;;5136205;27;20107;-71
2023/11/04 11:42:08;;;;;;;17.38;10.68;;;;;;;;;;5136635;27;20114;-71
2023/11/04 11:44:56;;;;;;;15.43;9.80;;;;;;;;;;5135609;27;20034;-73
2023/11/04 11:47:42;;;;;;;15.65;9.75;;;;;;;;;;5136329;27;20019;-71
2023/11/04 11:50:28;;;;;;;13.88;9.45;;;;;;;;;;5121106;27;20072;-72
2023/11/04 11:53:13;;;;;;;17.08;10.02;;;;;;;;;;5121958;27;20026;-72
2023/11/04 11:55:59;;;;;;;19.85;11.93;;;;;;;;;;5128749;27;20378;-72
2023/11/04 11:58:47;;;;;;;22.40;14.27;;;;;;;;;;5120980;27;20443;-72
2023/11/04 12:01:33;;;;;;;18.92;12.20;;;;;;;;;;5135505;27;20034;-71
2023/11/04 12:04:20;;;;;;;17.85;10.27;;;;;;;;;;5135738;27;20046;-72
2023/11/04 12:07:06;;;;;;;17.30;11.10;;;;;;;;;;5136617;27;20046;-72
2023/11/04 12:09:51;;;;;;;17.23;11.48;;;;;;;;;;5136331;27;20059;-72
2023/11/04 12:12:37;;;;;;;17.95;10.75;;;;;;;;;;5135094;27;20325;-72
2023/11/04 12:15:23;;;;;;;18.27;10.40;;;;;;;;;;5136575;27;20454;-71
2023/11/04 12:18:10;;;;;;;18.08;10.02;;;;;;;;;;5136419;27;20034;-71
2023/11/04 12:20:55;;;;;;;15.10;9.90;;;;;;;;;;5136069;27;20042;-72
2023/11/04 12:23:41;;;;;;;13.60;9.00;;;;;;;;;;5136135;27;20106;-71
2023/11/04 12:26:30;;;;;;;15.05;9.68;;;;;;;;;;5135649;27;20417;-71
2023/11/04 12:29:16;;;;;;;13.50;9.43;;;;;;;;;;5135117;27;20109;-72
2023/11/04 12:32:03;;;;;;;17.17;10.13;;;;;;;;;;5135251;27;20042;-72
2023/11/04 12:34:52;;;;;;;15.68;10.55;;;;;;;;;;5135385;27;20030;-72
2023/11/04 12:37:38;;;;;;;16.70;9.98;;;;;;;;;;5135263;27;20102;-71
2023/11/04 12:40:26;;;;;;;16.58;10.48;;;;;;;;;;5134911;27;20087;-71
2023/11/04 12:43:12;;;;;;;16.35;9.30;;;;;;;;;;5119638;27;20053;-71
2023/11/04 12:45:58;;;;;;;14.27;9.43;;;;;;;;;;5136444;27;20031;-71
2023/11/04 12:48:44;;;;;;;13.95;8.63;;;;;;;;;;5134738;27;20019;-71
2023/11/04 12:51:30;;;;;;;13.98;9.27;;;;;;;;;;5135357;27;20371;-71
2023/11/04 12:54:15;;;;;;;14.65;8.93;;;;;;;;;;5135509;27;20047;-72
2023/11/04 12:57:01;;;;;;;12.63;8.70;;;;;;;;;;5120715;27;20008;-71
2023/11/04 12:59:47;;;;;;;12.93;8.65;;;;;;;;;;5134575;27;20094;-71
2023/11/04 13:02:32;;;;;;;13.45;8.77;;;;;;;;;;5135800;27;20397;-71
2023/11/04 13:05:18;;;;;;;11.63;7.90;;;;;;;;;;5135298;27;20367;-71
2023/11/04 13:08:04;;;;;;;13.35;8.27;;;;;;;;;;5128663;28;20034;-71
2023/11/04 13:10:50;;;;;;;14.40;8.57;;;;;;;;;;5133234;28;20076;-71
2023/11/04 13:13:36;;;;;;;12.93;8.68;;;;;;;;;;5133818;28;20030;-72
2023/11/04 13:16:23;;;;;;;13.93;9.00;;;;;;;;;;5134421;28;20096;-71
2023/11/04 13:19:09;;;;;;;11.20;7.10;;;;;;;;;;5134042;28;20027;-71
2023/11/04 13:21:55;;;;;;;13.80;7.72;;;;;;;;;;5119653;28;20111;-72
2023/11/04 13:24:40;;;;;;;8.75;5.35;;;;;;;;;;5133853;28;20015;-72
2023/11/04 13:27:27;;;;;;;11.40;6.43;;;;;;;;;;5133761;28;20038;-72
2023/11/04 13:30:14;;;;;;;11.88;7.20;;;;;;;;;;5133606;28;20035;-71
2023/11/04 13:32:59;;;;;;;10.88;7.70;;;;;;;;;;5120663;28;20023;-72
2023/11/04 13:35:46;;;;;;;11.25;7.68;;;;;;;;;;5134517;28;20027;-71
2023/11/04 13:38:31;;;;;;;11.10;7.93;;;;;;;;;;5133766;28;20030;-71
2023/11/04 13:41:17;;;;;;;9.25;7.10;;;;;;;;;;5119605;28;20119;-71
2023/11/04 13:44:07;;;;;;;9.43;6.93;;;;;;;;;;5133775;28;20023;-72
2023/11/04 13:46:52;;;;;;;9.05;6.88;;;;;;;;;;5119053;28;20034;-70
2023/11/04 13:49:38;;;;;;;9.85;6.72;;;;;;;;;;5119395;28;20019;-70
2023/11/04 13:52:24;;;;;;;11.77;7.65;;;;;;;;;;5134151;28;20015;-71
2023/11/04 13:55:10;;;;;;;11.10;7.78;;;;;;;;;;5133367;28;20228;-72
2023/11/04 13:57:56;;;;;;;14.32;7.63;;;;;;;;;;5134171;28;20023;-71
2023/11/04 14:00:41;;;;;;;11.55;7.22;;;;;;;;;;5118420;28;20027;-71
2023/11/04 14:03:31;;;;;;;8.95;6.88;;;;;;;;;;5133444;27;20030;-72
2023/11/04 14:06:16;;;;;;;10.95;7.18;;;;;;;;;;5122516;27;20042;-72
2023/11/04 14:09:02;;;;;;;9.82;7.30;;;;;;;;;;5121987;27;20019;-71
2023/11/04 14:11:48;;;;;;;9.88;7.07;;;;;;;;;;5121892;27;20030;-72
2023/11/04 14:14:33;;;;;;;16.13;7.85;;;;;;;;;;5137285;27;20110;-72
2023/11/04 14:17:19;;;;;;;11.07;7.47;;;;;;;;;;5136868;27;20382;-71
2023/11/04 14:20:06;;;;;;;12.65;7.35;;;;;;;;;;5136847;27;20023;-73
2023/11/04 14:22:51;;;;;;;10.45;6.50;;;;;;;;;;5137689;27;20038;-72
2023/11/04 14:25:37;;;;;;;12.50;6.40;;;;;;;;;;5136633;27;20023;-72
2023/11/04 14:28:22;;;;;;;12.23;7.10;;;;;;;;;;5137215;27;20031;-71
2023/11/04 14:31:08;;;;;;;9.63;7.03;;;;;;;;;;5137152;27;20015;-72
2023/11/04 14:33:53;;;;;;;12.32;6.70;;;;;;;;;;5137481;27;20152;-73
2023/11/04 14:36:39;;;;;;;13.70;7.30;;;;;;;;;;5122687;27;20015;-71
2023/11/04 14:39:25;;;;;;;8.85;5.95;;;;;;;;;;5121482;27;20015;-72
2023/11/04 14:42:13;;;;;;;10.77;6.40;;;;;;;;;;5137180;27;20046;-72
2023/11/04 14:44:58;;;;;;;9.20;6.75;;;;;;;;;;5136531;27;20041;-72
2023/11/04 14:47:44;;;;;;;12.13;6.90;;;;;;;;;;5122424;27;20023;-71
2023/11/04 14:50:30;;;;;;;7.57;6.03;;;;;;;;;;5122558;27;20027;-71
2023/11/04 14:53:15;;;;;;;9.30;6.60;;;;;;;;;;5122397;27;20173;-71
2023/11/04 14:56:01;;;;;;;9.75;6.38;;;;;;;;;;5136529;27;20529;-74
2023/11/04 14:58:47;;;;;;;10.57;6.47;;;;;;;;;;5137077;27;20027;-73
2023/11/04 15:01:45;;;;;;;8.45;5.63;;;;;;;;;;5136084;27;20019;-72
2023/11/04 15:04:30;;;;;;;9.48;5.68;;;;;;;;;;5136190;27;20015;-72
2023/11/04 15:07:16;;;;;;;8.45;5.68;;;;;;;;;;5136320;27;20015;-71
2023/11/04 15:10:02;;;;;;;9.60;5.88;;;;;;;;;;5136086;27;20070;-72
2023/11/04 15:12:47;;;;;;;10.05;5.57;;;;;;;;;;5135980;27;20019;-72
2023/11/04 15:15:33;;;;;;;8.30;5.20;;;;;;;;;;5136053;27;20023;-72
2023/11/04 15:18:19;;;;;;;7.88;5.75;;;;;;;;;;5136913;27;20023;-72
2023/11/04 15:21:04;;;;;;;8.35;5.55;;;;;;;;;;5122002;27;20038;-72
2023/11/04 15:23:50;;;;;;;8.07;5.35;;;;;;;;;;5136056;27;20061;-72
2023/11/04 15:26:36;;;;;;;8.13;5.75;;;;;;;;;;5136097;27;20023;-73
2023/11/04 15:29:22;;;;;;;8.63;5.78;;;;;;;;;;5136151;27;20031;-72
2023/11/04 15:32:07;;;;;;;9.00;5.22;;;;;;;;;;5120590;27;20015;-72
2023/11/04 15:34:53;;;;;;;10.18;6.63;;;;;;;;;;5135773;27;20019;-72
2023/11/04 15:37:39;;;;;;;10.35;6.95;;;;;;;;;;5136351;27;20102;-73
2023/11/04 15:40:24;;;;;;;11.32;6.35;;;;;;;;;;5119988;27;20439;-72
2023/11/04 15:43:10;;;;;;;9.35;6.13;;;;;;;;;;5136107;27;20435;-71
2023/11/04 15:45:56;;;;;;;11.60;6.45;;;;;;;;;;5135782;27;20444;-72
2023/11/04 15:48:42;;;;;;;6.80;5.30;;;;;;;;;;5135485;27;20103;-72
2023/11/04 15:51:27;;;;;;;12.27;6.35;;;;;;;;;;5135748;27;20427;-72
2023/11/04 15:54:13;;;;;;;9.20;5.68;;;;;;;;;;5135652;27;20111;-72
2023/11/04 15:57:00;;;;;;;8.73;5.38;;;;;;;;;;5135731;27;20061;-71
2023/11/04 15:59:45;;;;;;;8.88;5.63;;;;;;;;;;5135787;27;20148;-72
2023/11/04 16:02:31;;;;;;;8.70;6.30;;;;;;;;;;5135481;27;20055;-72
2023/11/04 16:05:16;;;;;;;10.50;6.07;;;;;;;;;;5135441;27;20108;-71
2023/11/04 16:08:02;;;;;;;8.40;5.78;;;;;;;;;;5135476;27;20023;-72
2023/11/04 16:10:48;;;;;;;9.43;5.50;;;;;;;;;;5120090;27;20023;-73
2023/11/04 16:13:33;;;;;;;9.65;6.20;;;;;;;;;;5120556;27;20023;-72
2023/11/04 16:16:19;;;;;;;9.63;5.85;;;;;;;;;;5127729;27;20019;-70